Terminal Aerodrome Forecast
Issued by NWS

Home | Current Version | Previous Version | Text Only | Print | Product List | Glossary On
Versions: 1 2 3 4 5 6 7 8 9 10 11 12 13 14 15 16 17 18 19 20 21 22 23
000
FTUS41 KRLX 291625 AAB
TAFCKB
TAF AMD
KCKB 291625Z 2916/3012 18008KT P6SM VCTS SCT040CB
      TEMPO 2916/2920 VRB08G20KT 4SM TSRA BKN025CB
     FM292000 VRB03KT P6SM VCTS BKN040CB
     FM300400 17004KT 6SM BR BKN060=

USA.gov is the U.S. government's official web portal to all federal, state and local government web resources and services.